Time;durP1;ratioP1;P1;durP2;ratioP2;P2;SDS_P1;SDS_P2;PMS_P1;PMS_P2;Temp;Humidity;BMP_temperature;BMP_pressure;BME280_temperature;BME280_humidity;BME280_pressure;Samples;Min_cycle;Max_cycle;Signal;HPM_P1;HPM_P2
2023/01/19 00:02:20;;;;;;;14.90;9.37;;;0.70;99.90;;;;;;5055803;28;20546;-70
2023/01/19 00:04:47;;;;;;;13.30;9.10;;;0.70;99.90;;;;;;5055456;28;20558;-69
2023/01/19 00:07:16;;;;;;;17.80;8.70;;;0.70;99.90;;;;;;5056241;28;20455;-70
2023/01/19 00:09:45;;;;;;;13.23;9.77;;;0.70;99.90;;;;;;5056097;28;20455;-69
2023/01/19 00:12:11;;;;;;;13.23;9.33;;;0.70;99.90;;;;;;5055488;28;20459;-68
2023/01/19 00:14:38;;;;;;;12.83;9.43;;;0.70;99.90;;;;;;5055935;28;20458;-69
2023/01/19 00:17:05;;;;;;;12.93;8.73;;;0.70;99.90;;;;;;5059224;28;20937;-69
2023/01/19 00:19:32;;;;;;;12.37;9.17;;;0.70;99.90;;;;;;5059054;28;20473;-69
2023/01/19 00:21:59;;;;;;;20.60;9.30;;;0.60;99.90;;;;;;5058792;28;20454;-69
2023/01/19 00:24:27;;;;;;;13.33;8.87;;;0.60;99.90;;;;;;5058711;28;20573;-69
2023/01/19 00:26:54;;;;;;;18.37;9.60;;;0.60;99.90;;;;;;5058763;28;20458;-69
2023/01/19 00:29:20;;;;;;;18.43;9.27;;;0.60;99.90;;;;;;5058692;28;20522;-69
2023/01/19 00:31:47;;;;;;;11.30;8.37;;;0.60;99.90;;;;;;5058630;28;20455;-68
2023/01/19 00:34:14;;;;;;;11.97;8.83;;;0.60;99.90;;;;;;5059519;28;20776;-70
2023/01/19 00:36:41;;;;;;;13.07;7.97;;;0.50;99.90;;;;;;5058704;28;20447;-68
2023/01/19 00:39:08;;;;;;;11.67;9.03;;;0.50;99.90;;;;;;5058747;28;20474;-68
2023/01/19 00:44:20;;;;;;;11.20;8.00;;;0.50;99.90;;;;;;5057686;28;20426;-68
2023/01/19 00:46:47;;;;;;;10.07;8.57;;;0.50;99.90;;;;;;5057723;28;21018;-68
2023/01/19 00:49:14;;;;;;;19.00;9.70;;;0.40;99.90;;;;;;5057879;28;20481;-69
2023/01/19 00:51:41;;;;;;;9.20;7.77;;;0.40;99.90;;;;;;5057232;28;20776;-70
2023/01/19 00:54:09;;;;;;;11.70;8.10;;;0.40;99.90;;;;;;5057174;28;20550;-69
2023/01/19 00:56:37;;;;;;;11.73;8.03;;;0.40;99.90;;;;;;5056650;28;20876;-70
2023/01/19 00:59:04;;;;;;;13.57;9.17;;;0.40;99.90;;;;;;5056809;28;20462;-69
2023/01/19 01:01:31;;;;;;;11.20;8.10;;;0.40;99.90;;;;;;5057261;28;20592;-69
2023/01/19 01:03:58;;;;;;;12.10;7.80;;;0.40;99.90;;;;;;5056992;28;20465;-69
2023/01/19 01:06:25;;;;;;;12.43;8.57;;;0.40;99.90;;;;;;5056903;28;20590;-69
2023/01/19 01:08:52;;;;;;;13.83;8.80;;;0.40;99.90;;;;;;5056729;28;20542;-69
2023/01/19 01:11:19;;;;;;;13.50;8.33;;;0.40;99.90;;;;;;5057175;28;20803;-70
2023/01/19 01:13:47;;;;;;;12.17;9.47;;;0.40;99.90;;;;;;5060753;28;20485;-69
2023/01/19 01:16:15;;;;;;;10.70;8.20;;;0.40;99.90;;;;;;5062588;28;20489;-69
2023/01/19 01:18:43;;;;;;;17.10;8.50;;;0.30;99.90;;;;;;5061288;28;20481;-69
2023/01/19 01:21:11;;;;;;;13.33;9.17;;;0.30;99.90;;;;;;5063215;28;20452;-68
2023/01/19 01:23:38;;;;;;;12.30;9.00;;;0.30;99.90;;;;;;5063237;28;20466;-68
2023/01/19 01:26:05;;;;;;;14.03;9.80;;;0.30;99.90;;;;;;5063750;28;20896;-69
2023/01/19 01:28:32;;;;;;;11.90;9.17;;;0.30;99.90;;;;;;5061774;28;20459;-69
2023/01/19 01:31:00;;;;;;;13.33;9.63;;;0.30;99.90;;;;;;5057209;28;20534;-69
2023/01/19 01:33:27;;;;;;;12.83;9.27;;;0.30;99.90;;;;;;5055761;28;20958;-69
2023/01/19 01:35:54;;;;;;;17.23;10.13;;;0.20;99.90;;;;;;5058620;28;20554;-68
2023/01/19 01:38:21;;;;;;;15.37;9.97;;;0.20;99.90;;;;;;5056998;28;20459;-69
2023/01/19 01:40:48;;;;;;;12.87;10.07;;;0.20;99.90;;;;;;5056751;28;20459;-69
2023/01/19 01:43:16;;;;;;;13.80;9.37;;;0.20;99.90;;;;;;5056092;28;20533;-69
2023/01/19 01:45:44;;;;;;;12.80;9.53;;;0.20;99.90;;;;;;5056161;28;20536;-69
2023/01/19 01:48:16;;;;;;;13.93;10.03;;;0.10;99.90;;;;;;5056625;28;20455;-70
2023/01/19 01:53:32;;;;;;;14.13;9.90;;;0.10;99.90;;;;;;5055832;28;20772;-69
2023/01/19 01:56:01;;;;;;;19.40;10.70;;;0.10;99.90;;;;;;5056613;28;20443;-68
2023/01/19 01:58:29;;;;;;;14.37;10.10;;;0.10;99.90;;;;;;5056293;28;20455;-69
2023/01/19 02:03:41;;;;;;;18.60;10.67;;;0.00;99.90;;;;;;5055315;28;20883;-69
2023/01/19 02:06:11;;;;;;;14.27;9.20;;;-0.10;99.90;;;;;;5055829;28;20582;-69
2023/01/19 02:14:13;;;;;;;19.53;11.17;;;-0.10;99.90;;;;;;5055854;28;20443;-68
2023/01/19 02:16:40;;;;;;;13.00;9.63;;;-0.10;99.90;;;;;;5055692;28;20498;-71
2023/01/19 02:19:14;;;;;;;15.23;10.83;;;-0.10;99.90;;;;;;5055568;28;20462;-70
2023/01/19 02:21:48;;;;;;;15.10;10.53;;;-0.20;99.90;;;;;;5055459;28;20439;-69
2023/01/19 02:24:17;;;;;;;13.87;11.17;;;-0.20;99.90;;;;;;5056476;28;20747;-69
2023/01/19 02:26:46;;;;;;;15.57;10.53;;;-0.20;99.90;;;;;;5055701;28;20490;-69
2023/01/19 02:29:16;;;;;;;15.63;10.87;;;-0.20;99.90;;;;;;5055752;28;20943;-69
2023/01/19 02:31:44;;;;;;;17.73;11.37;;;-0.30;99.90;;;;;;5055920;28;20448;-70
2023/01/19 02:34:15;;;;;;;14.77;10.80;;;-0.30;99.90;;;;;;5056268;28;20451;-69
2023/01/19 02:36:45;;;;;;;17.80;11.03;;;-0.30;99.90;;;;;;5056131;28;20752;-69
2023/01/19 02:39:13;;;;;;;17.17;11.10;;;-0.30;99.90;;;;;;5054995;28;20522;-70
2023/01/19 02:41:43;;;;;;;14.10;10.10;;;-0.30;99.90;;;;;;5056345;28;20489;-69
2023/01/19 02:44:12;;;;;;;19.73;11.37;;;-0.30;99.90;;;;;;5056164;28;20454;-70
2023/01/19 02:46:39;;;;;;;14.10;10.30;;;-0.30;99.90;;;;;;5056652;28;20478;-70
2023/01/19 02:49:06;;;;;;;18.03;11.47;;;-0.40;99.90;;;;;;5056085;28;20541;-69
2023/01/19 02:51:34;;;;;;;16.63;10.80;;;-0.40;99.90;;;;;;5055472;28;20818;-69
2023/01/19 02:54:24;;;;;;;15.50;11.30;;;-0.50;99.90;;;;;;5054879;28;20455;-69
2023/01/19 02:57:08;;;;;;;17.23;10.60;;;-0.50;99.90;;;;;;5055583;28;20522;-70
2023/01/19 02:59:50;;;;;;;17.53;11.57;;;-0.60;99.90;;;;;;5042372;28;20537;-69
2023/01/19 03:02:26;;;;;;;15.60;11.03;;;-0.50;99.90;;;;;;5055941;28;20443;-68
2023/01/19 03:05:07;;;;;;;20.00;11.70;;;-0.50;99.90;;;;;;5055809;28;20547;-69
2023/01/19 03:07:44;;;;;;;14.47;10.80;;;-0.60;99.90;;;;;;5055157;28;20791;-69
2023/01/19 03:10:20;;;;;;;20.80;11.63;;;-0.60;99.90;;;;;;5055139;28;20443;-69
2023/01/19 03:12:53;;;;;;;16.20;11.50;;;-0.60;99.90;;;;;;5054828;28;20439;-68
2023/01/19 03:15:26;;;;;;;19.60;12.10;;;-0.60;99.90;;;;;;5054921;28;20535;-69
2023/01/19 03:17:57;;;;;;;15.87;11.57;;;-0.60;99.90;;;;;;5054950;28;20785;-69
2023/01/19 03:20:27;;;;;;;22.10;13.23;;;-0.60;99.90;;;;;;5054592;28;20511;-69
2023/01/19 03:23:00;;;;;;;21.13;13.17;;;-0.60;99.90;;;;;;5055142;28;20455;-70
2023/01/19 03:25:31;;;;;;;17.80;12.50;;;-0.60;99.90;;;;;;5054702;28;20526;-68
2023/01/19 03:27:59;;;;;;;18.23;12.50;;;-0.60;99.90;;;;;;5054871;28;20934;-70
2023/01/19 03:30:30;;;;;;;20.57;12.57;;;-0.60;99.90;;;;;;5054659;28;20459;-69
2023/01/19 03:33:03;;;;;;;16.60;12.37;;;-0.70;99.90;;;;;;5055180;28;20521;-68
2023/01/19 03:35:34;;;;;;;18.03;12.87;;;-0.70;99.90;;;;;;5055653;28;20537;-69
2023/01/19 03:38:07;;;;;;;17.57;13.10;;;-0.70;99.90;;;;;;5054891;28;20439;-69
2023/01/19 03:40:36;;;;;;;19.73;13.47;;;-0.70;99.90;;;;;;5054815;28;20446;-69
2023/01/19 03:43:04;;;;;;;20.33;13.93;;;-0.80;99.90;;;;;;5054719;28;20574;-69
2023/01/19 03:45:36;;;;;;;18.07;12.67;;;-0.80;99.90;;;;;;5056306;28;20542;-71
2023/01/19 03:48:04;;;;;;;20.73;13.17;;;-0.90;99.90;;;;;;5055157;28;20538;-68
2023/01/19 03:50:31;;;;;;;18.90;13.67;;;-0.90;99.90;;;;;;5057793;28;20454;-69
2023/01/19 03:53:06;;;;;;;19.10;12.83;;;-1.00;99.90;;;;;;5059859;28;20513;-69
2023/01/19 03:55:33;;;;;;;25.03;14.87;;;-1.00;99.90;;;;;;5058930;28;20530;-69
2023/01/19 03:58:00;;;;;;;21.53;14.50;;;-1.00;99.90;;;;;;5058539;28;20455;-68
2023/01/19 04:00:28;;;;;;;19.80;14.93;;;-1.10;99.90;;;;;;5059095;28;20501;-68
2023/01/19 04:02:56;;;;;;;20.93;14.63;;;-1.10;99.90;;;;;;5060026;28;20462;-69
2023/01/19 04:05:23;;;;;;;21.10;14.53;;;-1.10;99.90;;;;;;5059182;28;20522;-70
2023/01/19 04:07:50;;;;;;;23.50;14.23;;;-1.20;99.90;;;;;;5058829;28;20479;-69
2023/01/19 04:10:17;;;;;;;25.03;15.37;;;-1.20;99.90;;;;;;5059359;28;20455;-69
2023/01/19 04:12:44;;;;;;;23.63;15.30;;;-1.20;99.90;;;;;;5059152;28;20522;-69
2023/01/19 04:15:12;;;;;;;24.57;15.43;;;-1.20;99.90;;;;;;5059273;28;20538;-69
2023/01/19 04:17:41;;;;;;;25.03;15.00;;;-1.20;99.90;;;;;;5059825;28;20465;-69
2023/01/19 04:20:09;;;;;;;22.40;15.93;;;-1.30;99.90;;;;;;5058982;28;20542;-69
2023/01/19 04:22:37;;;;;;;20.57;14.03;;;-1.30;99.90;;;;;;5058507;28;20783;-69
2023/01/19 04:25:05;;;;;;;21.47;14.70;;;-1.30;99.90;;;;;;5058063;28;20811;-69
2023/01/19 04:27:32;;;;;;;27.83;15.00;;;-1.30;99.90;;;;;;5058106;28;20997;-70
2023/01/19 04:29:59;;;;;;;26.27;15.50;;;-1.40;99.90;;;;;;5057814;28;20469;-68
2023/01/19 04:32:26;;;;;;;27.37;15.60;;;-1.40;99.90;;;;;;5058270;28;20481;-69
2023/01/19 04:34:54;;;;;;;21.57;15.33;;;-1.40;99.90;;;;;;5058992;28;20468;-69
2023/01/19 04:37:21;;;;;;;21.77;14.80;;;-1.40;99.90;;;;;;5059231;28;20534;-68
2023/01/19 04:39:48;;;;;;;23.17;15.40;;;-1.50;99.90;;;;;;5059815;28;20465;-69
2023/01/19 04:42:15;;;;;;;23.00;15.07;;;-1.50;99.90;;;;;;5059643;28;20479;-69
2023/01/19 04:44:42;;;;;;;23.13;15.00;;;-1.50;99.90;;;;;;5058381;28;20455;-69
2023/01/19 04:47:10;;;;;;;21.80;14.23;;;-1.60;99.90;;;;;;5058809;28;20566;-69
2023/01/19 04:49:37;;;;;;;25.10;14.47;;;-1.70;99.90;;;;;;5058495;28;20463;-69
2023/01/19 04:52:06;;;;;;;25.13;15.30;;;-1.70;99.90;;;;;;5057981;28;20459;-69
2023/01/19 04:54:33;;;;;;;27.43;15.67;;;-1.60;99.90;;;;;;5058010;28;20455;-69
2023/01/19 04:57:00;;;;;;;26.80;15.13;;;-1.60;99.90;;;;;;5058338;28;20455;-69
2023/01/19 04:59:26;;;;;;;20.80;14.57;;;-1.60;99.90;;;;;;5058637;28;20454;-70
2023/01/19 05:01:54;;;;;;;27.37;15.57;;;-1.60;99.90;;;;;;5057545;28;20455;-69
2023/01/19 05:04:21;;;;;;;20.90;14.50;;;-1.60;99.90;;;;;;5058950;28;20798;-70
2023/01/19 05:06:48;;;;;;;23.83;14.50;;;-1.70;99.90;;;;;;5059645;28;20898;-69
2023/01/19 05:09:16;;;;;;;21.13;14.87;;;-1.70;99.90;;;;;;5059930;28;20539;-69
2023/01/19 05:11:43;;;;;;;21.80;14.73;;;-1.80;99.90;;;;;;5060039;28;20844;-68
2023/01/19 05:14:10;;;;;;;23.60;15.60;;;-1.80;99.90;;;;;;5059141;28;20459;-70
2023/01/19 05:16:37;;;;;;;24.07;15.57;;;-1.80;99.90;;;;;;5059746;28;20538;-69
2023/01/19 05:19:04;;;;;;;20.13;13.93;;;-1.90;99.90;;;;;;5059114;28;20622;-69
2023/01/19 05:21:31;;;;;;;23.67;16.03;;;-1.90;99.90;;;;;;5060136;28;20951;-69
2023/01/19 05:23:57;;;;;;;29.53;15.23;;;-2.00;99.90;;;;;;5059510;28;20538;-69
2023/01/19 05:26:26;;;;;;;22.30;14.50;;;-2.00;99.90;;;;;;5059269;28;20650;-69
2023/01/19 05:28:53;;;;;;;22.53;15.50;;;-2.00;99.90;;;;;;5059386;28;20455;-69
2023/01/19 05:31:19;;;;;;;22.60;14.60;;;-1.90;99.90;;;;;;5059535;28;20844;-70
2023/01/19 05:33:47;;;;;;;21.23;14.40;;;-2.00;99.90;;;;;;5059188;28;20466;-69
2023/01/19 05:36:13;;;;;;;25.70;14.47;;;-1.90;99.90;;;;;;5058842;28;20531;-69
2023/01/19 05:38:40;;;;;;;27.50;15.20;;;-1.90;99.90;;;;;;5058958;28;20534;-68
2023/01/19 05:41:07;;;;;;;23.47;14.60;;;-1.90;99.90;;;;;;5058371;28;20857;-68
2023/01/19 05:43:35;;;;;;;21.03;14.90;;;-2.00;99.90;;;;;;5057744;28;20561;-69
2023/01/19 05:46:04;;;;;;;24.03;14.90;;;-2.00;99.90;;;;;;5057730;28;20857;-69
2023/01/19 05:48:31;;;;;;;21.03;14.80;;;-1.90;99.90;;;;;;5057562;28;20459;-70
2023/01/19 05:50:58;;;;;;;20.93;14.63;;;-1.90;99.90;;;;;;5057868;28;20558;-69
2023/01/19 05:53:25;;;;;;;22.77;15.60;;;-1.90;99.90;;;;;;5057285;28;20455;-69
2023/01/19 05:55:52;;;;;;;25.90;16.37;;;-1.90;99.90;;;;;;5057223;28;20459;-69
2023/01/19 05:58:19;;;;;;;22.60;15.77;;;-1.90;99.90;;;;;;5058030;28;20542;-68
2023/01/19 06:00:47;;;;;;;21.93;15.60;;;-1.90;99.90;;;;;;5056939;28;20553;-69
2023/01/19 06:03:14;;;;;;;24.10;15.60;;;-1.90;99.90;;;;;;5057289;28;20462;-69
2023/01/19 06:05:41;;;;;;;22.73;16.17;;;-2.00;99.90;;;;;;5057082;28;20491;-69
2023/01/19 06:08:07;;;;;;;22.77;14.43;;;-2.00;99.90;;;;;;5057001;28;20493;-68
2023/01/19 06:10:34;;;;;;;23.90;15.10;;;-2.00;99.90;;;;;;5057219;28;20962;-69
2023/01/19 06:13:01;;;;;;;22.80;15.93;;;-2.10;99.90;;;;;;5056556;28;20459;-68
2023/01/19 06:15:28;;;;;;;22.33;14.83;;;-2.10;99.90;;;;;;5056136;28;20546;-69
2023/01/19 06:17:56;;;;;;;20.40;15.13;;;-2.10;99.90;;;;;;5056911;28;20479;-69
2023/01/19 06:20:23;;;;;;;18.90;14.70;;;-2.10;99.90;;;;;;5056667;28;20469;-69
2023/01/19 06:22:50;;;;;;;29.20;16.40;;;-2.10;99.90;;;;;;5056406;28;21054;-69
2023/01/19 06:25:17;;;;;;;25.10;14.90;;;-2.10;99.90;;;;;;5056593;28;20912;-69
2023/01/19 06:27:45;;;;;;;26.77;14.63;;;-2.20;99.90;;;;;;5056252;28;21031;-69
2023/01/19 06:30:13;;;;;;;20.23;14.60;;;-2.20;99.90;;;;;;5056218;28;20561;-70
2023/01/19 06:32:39;;;;;;;22.10;14.17;;;-2.20;99.90;;;;;;5055600;28;20471;-70
2023/01/19 06:35:08;;;;;;;20.70;14.73;;;-2.20;99.90;;;;;;5055624;28;20791;-69
2023/01/19 06:37:35;;;;;;;21.87;14.80;;;-2.20;99.90;;;;;;5055277;28;20483;-69
2023/01/19 06:40:02;;;;;;;21.90;15.57;;;-2.20;99.90;;;;;;5055318;28;20455;-69
2023/01/19 06:42:29;;;;;;;28.93;15.77;;;-2.20;99.90;;;;;;5054910;28;20489;-70
2023/01/19 06:44:56;;;;;;;22.13;14.80;;;-2.30;99.90;;;;;;5055266;28;20465;-68
2023/01/19 06:47:23;;;;;;;23.73;14.60;;;-2.20;99.90;;;;;;5055734;28;20483;-69
2023/01/19 06:49:50;;;;;;;19.73;13.10;;;-2.20;99.90;;;;;;5055556;28;20453;-70
2023/01/19 06:52:19;;;;;;;20.97;14.00;;;-2.20;99.90;;;;;;5054589;28;20465;-69
2023/01/19 06:54:46;;;;;;;22.57;14.03;;;-2.20;99.90;;;;;;5054639;28;20883;-69
2023/01/19 06:57:13;;;;;;;23.37;14.60;;;-2.10;99.90;;;;;;5054788;28;20451;-69
2023/01/19 06:59:40;;;;;;;21.60;15.73;;;-2.10;99.90;;;;;;5054682;28;20948;-69
2023/01/19 07:02:07;;;;;;;26.47;13.20;;;-2.10;99.90;;;;;;5054351;28;20455;-68
2023/01/19 07:04:34;;;;;;;26.40;15.00;;;-2.10;99.90;;;;;;5055026;28;20862;-69
2023/01/19 07:07:01;;;;;;;17.90;13.07;;;-2.10;99.90;;;;;;5055172;28;20482;-70
2023/01/19 07:09:29;;;;;;;20.40;14.70;;;-2.10;99.90;;;;;;5055094;28;20463;-69
2023/01/19 07:11:56;;;;;;;20.23;14.40;;;-2.10;99.90;;;;;;5055078;28;20540;-69
2023/01/19 07:14:24;;;;;;;27.43;14.23;;;-2.10;99.90;;;;;;5054867;28;20530;-69
2023/01/19 07:16:51;;;;;;;21.20;15.10;;;-2.10;99.90;;;;;;5054658;28;20561;-69
2023/01/19 07:19:18;;;;;;;21.77;14.53;;;-2.00;99.90;;;;;;5055089;28;20546;-69
2023/01/19 07:21:45;;;;;;;19.57;13.53;;;-2.10;99.90;;;;;;5055157;28;20538;-69
2023/01/19 07:24:11;;;;;;;21.63;15.03;;;-2.10;99.90;;;;;;5055391;28;20553;-69
2023/01/19 07:26:40;;;;;;;24.57;15.00;;;-2.20;99.90;;;;;;5058889;28;20455;-69
2023/01/19 07:29:06;;;;;;;24.03;15.87;;;-2.10;99.90;;;;;;5058838;28;20550;-69
2023/01/19 07:31:33;;;;;;;19.00;13.60;;;-2.10;99.90;;;;;;5058799;28;20794;-69
2023/01/19 07:34:00;;;;;;;24.33;15.87;;;-2.10;99.90;;;;;;5058397;28;21026;-69
2023/01/19 07:36:27;;;;;;;20.13;14.67;;;-2.10;99.90;;;;;;5058268;28;20451;-69
2023/01/19 07:38:54;;;;;;;25.40;14.43;;;-2.10;99.90;;;;;;5058420;28;20494;-68
2023/01/19 07:41:21;;;;;;;22.80;13.93;;;-2.10;99.90;;;;;;5058567;28;20481;-70
2023/01/19 07:43:50;;;;;;;17.90;12.90;;;-2.10;99.90;;;;;;5057750;28;20960;-70
2023/01/19 07:46:17;;;;;;;20.30;13.63;;;-2.10;99.90;;;;;;5057902;28;20477;-70
2023/01/19 07:48:45;;;;;;;24.20;15.23;;;-2.10;99.90;;;;;;5059005;28;20474;-70
2023/01/19 07:51:16;;;;;;;16.90;13.20;;;-2.10;99.90;;;;;;5058226;28;20508;-69
2023/01/19 07:53:43;;;;;;;24.00;15.00;;;-2.00;99.90;;;;;;5058358;28;20474;-69
2023/01/19 07:56:10;;;;;;;21.80;14.33;;;-2.00;99.90;;;;;;5058357;28;20867;-70
2023/01/19 07:58:37;;;;;;;20.77;13.47;;;-2.00;99.90;;;;;;5057888;28;20465;-69
2023/01/19 08:01:08;;;;;;;22.30;14.30;;;-1.90;99.90;;;;;;5057789;28;20542;-69
2023/01/19 08:03:35;;;;;;;18.23;13.07;;;-1.90;99.90;;;;;;5057650;28;20895;-69
2023/01/19 08:06:03;;;;;;;21.30;14.30;;;-1.90;99.90;;;;;;5057753;28;20458;-69
2023/01/19 08:08:31;;;;;;;19.27;13.83;;;-1.90;99.90;;;;;;5075921;28;20485;-70
2023/01/19 08:10:58;;;;;;;24.87;13.57;;;-1.80;99.90;;;;;;5077359;28;20555;-70
2023/01/19 08:13:25;;;;;;;19.10;13.40;;;-1.80;99.90;;;;;;5077909;28;20748;-69
2023/01/19 08:15:53;;;;;;;16.93;12.13;;;-1.70;99.90;;;;;;5077485;28;20454;-70
2023/01/19 08:18:21;;;;;;;20.33;12.40;;;-1.70;99.90;;;;;;5077639;28;20450;-70
2023/01/19 08:20:48;;;;;;;19.60;12.43;;;-1.70;99.90;;;;;;5077422;28;20874;-70
2023/01/19 08:23:16;;;;;;;17.90;12.13;;;-1.60;99.90;;;;;;5077557;28;20453;-69
2023/01/19 08:25:44;;;;;;;19.53;12.53;;;-1.60;99.90;;;;;;5077564;28;20462;-70
2023/01/19 08:28:13;;;;;;;16.80;11.60;;;-1.50;99.90;;;;;;5077660;28;20477;-69
2023/01/19 08:30:42;;;;;;;17.33;11.50;;;-1.40;99.90;;;;;;5077076;28;20497;-70
2023/01/19 08:33:09;;;;;;;20.60;13.40;;;-1.30;99.90;;;;;;5077517;28;20449;-69
2023/01/19 08:35:40;;;;;;;17.30;12.90;;;-1.40;99.90;;;;;;5077462;28;20454;-69
2023/01/19 08:38:08;;;;;;;15.83;12.03;;;-1.40;99.90;;;;;;5077692;28;20483;-69
2023/01/19 08:40:37;;;;;;;24.60;14.10;;;-1.30;99.90;;;;;;5077188;28;20478;-69
2023/01/19 08:43:06;;;;;;;21.13;12.67;;;-1.30;99.90;;;;;;5076741;28;20477;-69
2023/01/19 08:45:34;;;;;;;20.20;12.27;;;-1.30;99.90;;;;;;5076641;28;20783;-70
2023/01/19 08:48:01;;;;;;;15.63;11.43;;;-1.20;99.90;;;;;;5076875;28;20485;-70
2023/01/19 08:50:28;;;;;;;22.23;12.50;;;-1.10;99.90;;;;;;5075754;28;20505;-70
2023/01/19 08:52:57;;;;;;;14.23;10.37;;;-1.10;99.90;;;;;;5076456;28;20501;-69
2023/01/19 08:55:25;;;;;;;15.53;11.30;;;-1.10;99.90;;;;;;5076127;28;21005;-69
2023/01/19 08:57:52;;;;;;;18.40;12.10;;;-1.00;99.90;;;;;;5077113;28;20930;-70
2023/01/19 09:00:20;;;;;;;14.70;10.60;;;-1.00;99.90;;;;;;5076743;28;20462;-68
2023/01/19 09:02:47;;;;;;;15.33;10.17;;;-1.00;99.90;;;;;;5076279;28;20454;-70
2023/01/19 09:05:14;;;;;;;17.83;10.70;;;-1.00;99.90;;;;;;5076445;28;20545;-69
2023/01/19 09:07:43;;;;;;;15.73;11.20;;;-1.00;99.90;;;;;;5076998;28;20480;-69
2023/01/19 09:10:12;;;;;;;15.03;9.70;;;-0.90;99.90;;;;;;5077139;28;20541;-70
2023/01/19 09:12:39;;;;;;;13.63;10.03;;;-0.90;99.90;;;;;;5077862;28;20533;-69
2023/01/19 09:15:07;;;;;;;14.80;10.30;;;-0.90;99.90;;;;;;5077445;28;20454;-71
2023/01/19 09:17:34;;;;;;;13.20;10.87;;;-0.90;99.90;;;;;;5077732;28;20493;-70
2023/01/19 09:20:01;;;;;;;14.37;9.83;;;-0.90;99.90;;;;;;5076388;28;20463;-70
2023/01/19 09:22:28;;;;;;;17.83;10.77;;;-0.80;99.90;;;;;;5076518;28;20530;-70
2023/01/19 09:24:55;;;;;;;15.17;10.23;;;-0.80;99.90;;;;;;5076560;28;20778;-70
2023/01/19 09:27:23;;;;;;;22.60;9.23;;;-0.80;99.90;;;;;;5075921;28;20454;-70
2023/01/19 09:29:52;;;;;;;14.03;10.53;;;-0.70;99.90;;;;;;5076284;28;20460;-69
2023/01/19 09:32:20;;;;;;;13.30;9.83;;;-0.70;99.90;;;;;;5076662;28;20519;-70
2023/01/19 09:34:47;;;;;;;17.23;9.90;;;-0.70;99.90;;;;;;5076165;28;20454;-68
2023/01/19 09:37:15;;;;;;;14.30;10.07;;;-0.60;99.90;;;;;;5076399;28;20862;-69
2023/01/19 09:39:42;;;;;;;12.00;8.63;;;-0.50;99.90;;;;;;5076353;28;20910;-70
2023/01/19 09:42:18;;;;;;;12.23;9.00;;;-0.50;99.90;;;;;;5075305;28;20490;-68
2023/01/19 09:44:49;;;;;;;26.50;9.93;;;-0.50;99.90;;;;;;5076978;28;20460;-69
2023/01/19 09:47:21;;;;;;;10.00;8.50;;;-0.40;99.90;;;;;;5076721;28;20819;-70
2023/01/19 09:49:52;;;;;;;16.70;9.03;;;-0.40;99.90;;;;;;5075913;28;20441;-70
2023/01/19 09:52:20;;;;;;;12.30;9.43;;;-0.30;99.90;;;;;;5075948;28;20541;-70
2023/01/19 09:54:53;;;;;;;11.30;9.03;;;-0.30;99.90;;;;;;5075916;28;20451;-70
2023/01/19 09:57:21;;;;;;;14.83;9.93;;;-0.20;99.90;;;;;;5075791;28;20448;-70
2023/01/19 09:59:50;;;;;;;12.23;9.70;;;-0.10;99.90;;;;;;5075634;28;20497;-70
2023/01/19 10:02:32;;;;;;;13.97;9.63;;;-0.10;99.90;;;;;;5075227;28;20919;-70
2023/01/19 10:05:01;;;;;;;15.10;10.23;;;0.00;99.90;;;;;;5075076;28;20470;-70
2023/01/19 10:07:53;;;;;;;17.60;9.83;;;0.00;99.90;;;;;;5075314;28;20474;-68
2023/01/19 10:10:22;;;;;;;12.13;9.23;;;0.00;99.90;;;;;;5075787;28;20474;-70
2023/01/19 10:13:01;;;;;;;17.60;8.80;;;0.10;99.90;;;;;;5075771;28;20844;-70
2023/01/19 10:15:39;;;;;;;13.87;9.27;;;0.10;99.90;;;;;;5075645;28;20495;-70
2023/01/19 10:18:17;;;;;;;14.03;9.40;;;0.20;99.90;;;;;;5075056;28;20445;-70
2023/01/19 10:20:48;;;;;;;11.23;9.00;;;0.20;99.90;;;;;;5075511;28;20529;-70
2023/01/19 10:23:38;;;;;;;12.00;9.07;;;0.30;99.90;;;;;;5075516;28;20496;-69
2023/01/19 10:26:11;;;;;;;13.93;9.93;;;0.30;99.90;;;;;;5075208;28;20438;-70
2023/01/19 10:28:39;;;;;;;15.40;9.00;;;0.40;99.90;;;;;;5075372;28;20466;-69
2023/01/19 10:31:08;;;;;;;12.87;8.83;;;0.40;99.90;;;;;;5075219;28;20458;-69
2023/01/19 10:33:36;;;;;;;12.17;8.37;;;0.40;99.90;;;;;;5074815;28;20458;-69
2023/01/19 10:36:05;;;;;;;14.60;9.60;;;0.50;99.90;;;;;;5074696;28;20876;-69
2023/01/19 10:38:34;;;;;;;11.23;8.97;;;0.50;99.90;;;;;;5075152;28;20782;-70
2023/01/19 10:41:05;;;;;;;12.90;8.60;;;0.50;99.90;;;;;;5075435;28;20577;-70
2023/01/19 10:43:40;;;;;;;11.87;9.00;;;0.50;99.90;;;;;;5074519;28;20580;-70
2023/01/19 10:46:17;;;;;;;11.07;9.10;;;0.60;99.90;;;;;;5074710;28;20980;-70
2023/01/19 10:48:47;;;;;;;12.30;9.03;;;0.60;99.90;;;;;;5075048;28;20473;-69
2023/01/19 10:51:14;;;;;;;12.97;9.90;;;0.70;99.90;;;;;;5074835;28;20450;-70
2023/01/19 10:53:44;;;;;;;12.43;9.70;;;0.70;99.90;;;;;;5075125;28;20578;-69
2023/01/19 10:56:16;;;;;;;14.77;9.67;;;0.80;99.90;;;;;;5075012;28;20454;-70
2023/01/19 10:58:43;;;;;;;12.70;9.20;;;0.80;99.90;;;;;;5074825;28;20450;-69
2023/01/19 11:01:16;;;;;;;11.40;8.60;;;0.90;99.90;;;;;;5073810;28;20500;-69
2023/01/19 11:03:43;;;;;;;13.47;10.10;;;0.90;99.90;;;;;;5074450;28;20919;-69
2023/01/19 11:06:25;;;;;;;9.80;8.27;;;1.00;99.90;;;;;;5075046;28;20542;-69
2023/01/19 11:08:53;;;;;;;14.50;9.40;;;1.10;99.90;;;;;;5075111;28;20473;-69
2023/01/19 11:11:23;;;;;;;11.77;9.20;;;1.20;99.90;;;;;;5075682;28;20481;-70
2023/01/19 11:14:06;;;;;;;14.37;9.17;;;1.30;99.90;;;;;;5077182;28;20454;-70
2023/01/19 11:16:36;;;;;;;14.43;10.10;;;1.40;99.90;;;;;;5075365;28;20863;-70
2023/01/19 11:19:04;;;;;;;15.10;9.50;;;1.50;99.90;;;;;;5075718;28;20473;-70
2023/01/19 11:21:32;;;;;;;11.27;8.50;;;1.60;99.90;;;;;;5075433;28;20794;-70
2023/01/19 11:24:04;;;;;;;11.80;9.00;;;1.60;99.90;;;;;;5075218;28;20461;-69
2023/01/19 11:26:33;;;;;;;13.53;9.33;;;1.70;99.90;;;;;;5075191;28;20453;-70
2023/01/19 11:29:04;;;;;;;11.87;9.70;;;1.80;99.90;;;;;;5075488;28;20885;-70
2023/01/19 11:31:33;;;;;;;14.07;8.27;;;1.90;99.90;;;;;;5074791;28;20798;-71
2023/01/19 11:34:03;;;;;;;16.47;9.10;;;1.90;99.90;;;;;;5075277;28;20831;-69
2023/01/19 11:36:32;;;;;;;10.50;8.13;;;2.00;99.90;;;;;;5074906;28;20454;-70
2023/01/19 11:39:02;;;;;;;15.53;9.00;;;2.00;99.90;;;;;;5074642;28;20541;-68
2023/01/19 11:41:31;;;;;;;10.40;8.77;;;1.90;99.90;;;;;;5074930;28;20442;-70
2023/01/19 11:44:09;;;;;;;11.83;8.07;;;2.00;99.90;;;;;;5074782;28;20482;-68
2023/01/19 11:46:40;;;;;;;13.33;8.53;;;1.90;99.90;;;;;;5075388;28;20478;-70
2023/01/19 11:49:17;;;;;;;14.07;8.70;;;2.00;99.90;;;;;;5075123;28;20473;-70
2023/01/19 11:51:51;;;;;;;11.80;8.10;;;2.00;99.90;;;;;;5075195;28;20452;-69
2023/01/19 11:54:23;;;;;;;16.47;9.13;;;2.10;99.90;;;;;;5074537;28;20965;-70
2023/01/19 11:56:51;;;;;;;9.80;7.83;;;2.10;99.90;;;;;;5074847;28;20446;-70
2023/01/19 11:59:20;;;;;;;15.00;9.27;;;2.20;99.90;;;;;;5074556;28;20523;-69
2023/01/19 12:01:53;;;;;;;13.27;10.40;;;2.30;99.90;;;;;;5074038;28;20458;-70
2023/01/19 12:04:26;;;;;;;10.93;8.50;;;2.40;99.90;;;;;;5074100;28;20453;-70
2023/01/19 12:06:56;;;;;;;11.07;8.70;;;2.40;99.90;;;;;;5074220;28;20453;-70
2023/01/19 12:09:27;;;;;;;11.73;9.07;;;2.40;99.90;;;;;;5074458;28;20514;-71
2023/01/19 12:11:58;;;;;;;13.00;9.10;;;2.50;99.90;;;;;;5076282;28;20438;-70
2023/01/19 12:14:28;;;;;;;17.40;10.37;;;2.70;99.90;;;;;;5077995;28;20442;-69
2023/01/19 12:17:00;;;;;;;11.17;8.10;;;3.20;99.90;;;;;;5077647;28;20538;-70
2023/01/19 12:19:41;;;;;;;10.80;8.77;;;3.80;99.90;;;;;;5077822;28;20501;-70
2023/01/19 12:22:13;;;;;;;10.23;8.00;;;4.70;99.90;;;;;;5077917;28;20453;-70
2023/01/19 12:24:46;;;;;;;13.10;8.70;;;5.30;99.90;;;;;;5078396;28;20473;-69
2023/01/19 12:27:22;;;;;;;11.60;8.60;;;5.80;99.90;;;;;;5070728;28;20450;-70
2023/01/19 12:29:49;;;;;;;9.37;8.20;;;6.30;99.90;;;;;;5078327;28;20552;-70
2023/01/19 12:32:18;;;;;;;13.40;8.50;;;6.70;99.90;;;;;;5078428;28;20454;-69
2023/01/19 12:34:47;;;;;;;10.93;8.10;;;7.00;99.90;;;;;;5078581;28;20464;-69
2023/01/19 12:37:36;;;;;;;9.97;7.30;;;7.10;99.90;;;;;;5076869;28;20485;-69
2023/01/19 12:40:17;;;;;;;10.07;7.13;;;7.70;99.90;;;;;;5079433;28;20857;-70
2023/01/19 12:42:45;;;;;;;11.33;7.47;;;8.10;99.90;;;;;;5078014;28;20882;-70
2023/01/19 12:45:16;;;;;;;9.00;7.53;;;8.30;99.90;;;;;;5079188;28;20454;-69
2023/01/19 12:47:51;;;;;;;14.97;10.90;;;8.70;99.90;;;;;;5065674;28;20455;-70
2023/01/19 12:50:22;;;;;;;10.13;8.50;;;9.20;99.90;;;;;;5060710;28;20463;-70
2023/01/19 12:52:55;;;;;;;8.90;7.43;;;9.60;99.90;;;;;;5060265;28;20505;-69
2023/01/19 12:55:26;;;;;;;9.00;7.80;;;9.50;99.90;;;;;;5059960;28;20446;-70
2023/01/19 12:57:59;;;;;;;10.60;8.27;;;9.10;99.90;;;;;;5058817;28;20599;-70
2023/01/19 13:00:32;;;;;;;12.07;7.60;;;9.00;99.90;;;;;;5058448;28;20435;-70